Time;durP1;ratioP1;P1;durP2;ratioP2;P2;SDS_P1;SDS_P2;PMS_P1;PMS_P2;Temp;Humidity;BMP_temperature;BMP_pressure;BME280_temperature;BME280_humidity;BME280_pressure;Samples;Min_cycle;Max_cycle;Signal;HPM_P1;HPM_P2
2023/09/05 00:01:45;;;;;;;7.50;5.18;;;;;;;16.74;99.41;101876.44;5051485;28;20029;-90
2023/09/05 00:04:13;;;;;;;5.22;4.72;;;;;;;16.73;99.44;101879.22;5038240;28;20025;-90
2023/09/05 00:06:39;;;;;;;7.50;5.25;;;;;;;16.69;100.00;101875.97;5030713;28;20553;-89
2023/09/05 00:09:05;;;;;;;5.93;5.32;;;;;;;16.61;100.00;101876.59;5029496;28;20021;-89
2023/09/05 00:11:31;;;;;;;5.97;5.38;;;;;;;16.58;100.00;101873.34;5029626;28;20363;-89
2023/09/05 00:13:56;;;;;;;7.00;5.80;;;;;;;16.53;100.00;101873.75;5028868;28;20481;-89
2023/09/05 00:16:21;;;;;;;5.90;4.95;;;;;;;16.53;100.00;101872.91;5029073;28;20079;-90
2023/09/05 00:18:47;;;;;;;6.20;5.20;;;;;;;16.56;100.00;101867.31;5029872;28;20025;-90
2023/09/05 00:21:15;;;;;;;7.43;5.43;;;;;;;16.47;100.00;101870.75;5026003;28;20123;-89
2023/09/05 00:23:40;;;;;;;8.07;5.15;;;;;;;16.45;100.00;101864.72;5029901;28;20100;-90
2023/09/05 00:26:05;;;;;;;7.05;5.60;;;;;;;16.44;100.00;101873.66;5028996;28;20462;-90
2023/09/05 00:28:32;;;;;;;7.97;6.00;;;;;;;16.33;100.00;101879.00;5033775;28;20543;-89
2023/09/05 00:31:01;;;;;;;7.05;6.35;;;;;;;16.32;100.00;101874.66;5049359;28;20033;-90
2023/09/05 00:33:30;;;;;;;7.20;6.43;;;;;;;16.31;100.00;101871.16;5034678;28;20022;-90
2023/09/05 00:35:55;;;;;;;7.38;5.93;;;;;;;16.23;100.00;101870.94;5048404;28;20483;-90
2023/09/05 00:38:22;;;;;;;9.60;6.50;;;;;;;16.27;100.00;101875.88;5038405;28;20100;-89
2023/09/05 00:40:57;;;;;;;7.43;6.22;;;;;;;16.22;100.00;101872.75;5030857;28;20089;-90
2023/09/05 00:43:23;;;;;;;7.85;6.72;;;;;;;16.12;100.00;101876.28;5032464;28;20092;-90
2023/09/05 00:45:49;;;;;;;7.22;6.57;;;;;;;16.10;100.00;101875.56;5064837;28;20119;-90
2023/09/05 00:48:27;;;;;;;6.80;6.10;;;;;;;16.06;100.00;101874.97;5048430;28;20041;-89
2023/09/05 00:50:56;;;;;;;8.48;7.68;;;;;;;16.03;100.00;101869.06;5031565;28;20039;-89
2023/09/05 00:53:26;;;;;;;8.02;7.03;;;;;;;15.97;100.00;101875.69;5028961;28;20047;-89
2023/09/05 00:55:52;;;;;;;9.18;7.72;;;;;;;15.96;100.00;101874.84;5036493;28;20041;-90
2023/09/05 00:58:19;;;;;;;7.10;6.40;;;;;;;15.93;100.00;101874.25;5030012;28;20032;-89
2023/09/05 01:00:44;;;;;;;7.72;6.30;;;;;;;15.88;100.00;101863.16;5028869;28;20117;-89
2023/09/05 01:03:10;;;;;;;7.75;6.90;;;;;;;15.90;100.00;101863.88;5038990;28;20433;-89
2023/09/05 01:05:40;;;;;;;8.02;7.22;;;;;;;15.88;100.00;101869.31;5049309;28;20101;-89
2023/09/05 01:08:30;;;;;;;6.75;6.15;;;;;;;15.90;100.00;101869.19;5048642;28;20048;-90
2023/09/05 01:10:59;;;;;;;8.73;6.40;;;;;;;15.87;100.00;101872.09;5045939;28;20063;-89
2023/09/05 01:13:26;;;;;;;8.02;6.47;;;;;;;15.82;100.00;101868.97;5027038;28;20071;-89
2023/09/05 01:15:53;;;;;;;7.25;6.55;;;;;;;15.73;100.00;101857.28;5029198;28;20033;-89
2023/09/05 01:18:18;;;;;;;8.77;6.72;;;;;;;15.75;100.00;101860.66;5029652;28;20041;-89
2023/09/05 01:20:59;;;;;;;7.72;6.72;;;;;;;15.77;100.00;101863.19;5036184;28;20025;-89
2023/09/05 01:23:31;;;;;;;9.10;6.60;;;;;;;15.69;100.00;101866.44;5048995;28;20020;-89
2023/09/05 01:25:59;;;;;;;7.18;6.47;;;;;;;15.64;100.00;101869.47;5049167;28;20472;-89
2023/09/05 01:28:26;;;;;;;6.90;6.25;;;;;;;15.65;100.00;101860.53;5043587;28;20075;-89
2023/09/05 01:30:52;;;;;;;8.60;6.20;;;;;;;15.62;100.00;101870.56;5030606;28;20032;-89
2023/09/05 01:33:17;;;;;;;7.18;6.47;;;;;;;15.57;100.00;101875.31;5027159;28;20021;-89
2023/09/05 01:35:43;;;;;;;7.45;6.18;;;;;;;15.53;100.00;101880.03;5027645;28;20021;-89
2023/09/05 01:38:08;;;;;;;7.38;6.55;;;;;;;15.48;100.00;101879.53;5027663;28;20072;-89
2023/09/05 01:40:33;;;;;;;7.20;6.50;;;;;;;15.46;100.00;101875.31;5028707;28;20052;-89
2023/09/05 01:42:59;;;;;;;7.18;6.47;;;;;;;15.44;100.00;101872.78;5027109;28;20124;-89
2023/09/05 01:45:24;;;;;;;7.75;6.82;;;;;;;15.35;100.00;101878.81;5026461;28;20132;-89
2023/09/05 01:47:49;;;;;;;8.55;7.20;;;;;;;15.39;100.00;101874.13;5036562;28;20068;-89
2023/09/05 01:50:15;;;;;;;8.05;7.25;;;;;;;15.42;100.00;101874.72;5039228;28;20033;-89
2023/09/05 01:52:40;;;;;;;8.27;6.68;;;;;;;15.37;100.00;101868.94;5028866;28;20119;-89
2023/09/05 01:55:06;;;;;;;8.00;6.47;;;;;;;15.36;100.00;101873.38;5039669;28;20553;-89
2023/09/05 01:57:32;;;;;;;7.53;6.80;;;;;;;15.37;100.00;101871.59;5051095;28;20071;-89
2023/09/05 01:59:57;;;;;;;9.38;7.82;;;;;;;15.42;100.00;101872.06;5048078;28;20481;-89
2023/09/05 02:02:23;;;;;;;8.18;7.38;;;;;;;15.46;100.00;101862.91;5048020;28;20111;-89
2023/09/05 02:04:49;;;;;;;12.50;7.28;;;;;;;15.49;100.00;101867.13;5029343;28;20021;-89
2023/09/05 02:07:18;;;;;;;8.82;7.65;;;;;;;15.50;100.00;101867.00;5026769;28;20500;-89
2023/09/05 02:09:43;;;;;;;8.77;7.90;;;;;;;15.56;100.00;101866.50;5030700;28;20021;-89
2023/09/05 02:12:09;;;;;;;8.13;7.32;;;;;;;15.59;100.00;101866.31;5026440;28;20055;-89
2023/09/05 02:14:35;;;;;;;7.97;7.18;;;;;;;15.63;100.00;101866.94;5027606;28;20026;-89
2023/09/05 02:17:00;;;;;;;8.85;7.18;;;;;;;15.65;100.00;101868.50;5029131;28;20036;-89
2023/09/05 02:19:27;;;;;;;8.02;7.30;;;;;;;15.71;100.00;101855.72;5027379;28;20030;-89
2023/09/05 02:21:53;;;;;;;8.00;7.20;;;;;;;15.72;100.00;101855.59;5026610;28;20065;-88
2023/09/05 02:24:18;;;;;;;7.93;7.13;;;;;;;15.75;100.00;101850.03;5032903;28;20276;-89
2023/09/05 02:26:44;;;;;;;8.30;7.22;;;;;;;15.75;100.00;101855.34;5031158;28;20025;-88
2023/09/05 02:29:12;;;;;;;8.00;7.15;;;;;;;15.77;99.72;101857.88;5042152;28;20044;-89
2023/09/05 02:31:37;;;;;;;9.48;6.80;;;;;;;15.77;99.46;101857.88;5053067;28;20040;-89
2023/09/05 02:34:03;;;;;;;7.82;6.97;;;;;;;15.77;100.00;101865.81;5067479;28;20432;-89
2023/09/05 02:36:30;;;;;;;9.32;7.15;;;;;;;15.73;100.00;101867.88;5051633;28;20029;-89
2023/09/05 02:38:58;;;;;;;7.70;6.70;;;;;;;15.71;100.00;101868.97;5048145;28;20681;-89
2023/09/05 02:41:23;;;;;;;7.63;6.90;;;;;;;15.68;99.90;101875.38;5029644;28;20021;-89
2023/09/05 02:43:49;;;;;;;11.23;7.40;;;;;;;15.68;99.94;101861.25;5032746;28;20041;-89
2023/09/05 02:46:15;;;;;;;7.55;6.75;;;;;;;15.64;100.00;101858.00;5031663;28;20705;-89
2023/09/05 02:48:44;;;;;;;8.00;6.57;;;;;;;15.61;100.00;101861.75;5030028;28;20030;-89
2023/09/05 02:51:11;;;;;;;7.43;6.75;;;;;;;15.58;100.00;101859.31;5028857;28;20034;-89
2023/09/05 02:53:40;;;;;;;8.02;6.13;;;;;;;15.56;100.00;101860.38;5032530;28;20031;-89
2023/09/05 02:56:06;;;;;;;9.35;7.07;;;;;;;15.54;100.00;101863.13;5039793;28;20029;-89
2023/09/05 02:58:32;;;;;;;7.97;6.72;;;;;;;15.53;100.00;101853.50;5029943;28;20095;-89
2023/09/05 03:01:04;;;;;;;8.23;7.20;;;;;;;15.51;100.00;101858.06;5030685;28;20029;-89
2023/09/05 03:03:30;;;;;;;12.73;7.90;;;;;;;15.49;100.00;101854.69;5040545;28;20481;-89
2023/09/05 03:05:56;;;;;;;10.88;7.20;;;;;;;15.48;100.00;101858.31;5049651;28;20029;-89
2023/09/05 03:08:22;;;;;;;10.38;7.15;;;;;;;15.46;100.00;101852.28;5050657;28;20473;-89
2023/09/05 03:10:52;;;;;;;7.45;6.75;;;;;;;15.45;100.00;101853.25;5050887;28;20033;-89
2023/09/05 03:13:18;;;;;;;7.88;7.07;;;;;;;15.42;100.00;101853.50;5039054;28;20394;-89
2023/09/05 03:15:43;;;;;;;9.45;6.80;;;;;;;15.39;100.00;101855.56;5029515;28;20029;-89
2023/09/05 03:18:12;;;;;;;9.05;6.78;;;;;;;15.36;100.00;101853.97;5027449;28;20020;-89
2023/09/05 03:20:40;;;;;;;10.48;7.20;;;;;;;15.34;100.00;101850.59;5029494;28;20017;-89
2023/09/05 03:23:06;;;;;;;8.30;7.00;;;;;;;15.28;100.00;101854.59;5028912;28;20155;-89
2023/09/05 03:25:31;;;;;;;8.32;6.82;;;;;;;15.31;100.00;101850.84;5031012;28;20557;-89
2023/09/05 03:27:56;;;;;;;8.13;7.32;;;;;;;15.28;100.00;101851.09;5040001;28;20108;-89
2023/09/05 03:30:22;;;;;;;10.20;7.15;;;;;;;15.27;100.00;101844.94;5049837;28;20423;-89
2023/09/05 03:32:47;;;;;;;7.95;7.15;;;;;;;15.27;100.00;101844.94;5033113;28;20036;-89
2023/09/05 03:35:12;;;;;;;9.38;6.78;;;;;;;15.24;100.00;101839.88;5030304;28;20112;-89
2023/09/05 03:37:38;;;;;;;11.00;7.20;;;;;;;15.23;100.00;101840.84;5030483;28;20076;-89
2023/09/05 03:40:04;;;;;;;8.93;6.97;;;;;;;15.23;100.00;101837.34;5031628;28;20023;-89
2023/09/05 03:42:29;;;;;;;11.15;7.00;;;;;;;15.20;100.00;101837.56;5031824;28;20056;-90
2023/09/05 03:44:55;;;;;;;7.38;6.60;;;;;;;15.19;100.00;101841.19;5031234;28;20478;-89
2023/09/05 03:47:20;;;;;;;10.57;6.72;;;;;;;15.21;100.00;101849.84;5035694;28;20147;-90
2023/09/05 03:49:45;;;;;;;10.18;6.53;;;;;;;15.18;100.00;101844.78;5043233;28;20044;-89
2023/09/05 03:52:10;;;;;;;7.05;6.40;;;;;;;15.17;100.00;101840.44;5047263;28;20029;-89
2023/09/05 03:54:40;;;;;;;8.70;6.60;;;;;;;15.17;100.00;101843.09;5042456;28;20029;-89
2023/09/05 03:57:05;;;;;;;7.22;6.53;;;;;;;15.11;100.00;101836.47;5028327;28;20029;-89
2023/09/05 03:59:31;;;;;;;8.00;6.82;;;;;;;15.14;100.00;101843.34;5048932;28;20525;-89
2023/09/05 04:01:57;;;;;;;6.97;6.30;;;;;;;15.08;100.00;101843.81;5048634;28;20072;-89
2023/09/05 04:04:22;;;;;;;7.40;5.95;;;;;;;15.05;100.00;101840.44;5047979;28;20055;-89
2023/09/05 04:06:47;;;;;;;9.55;6.40;;;;;;;15.02;100.00;101838.03;5036919;28;20024;-89
2023/09/05 04:09:13;;;;;;;9.32;6.05;;;;;;;15.02;100.00;101839.84;5028573;28;20043;-89
2023/09/05 04:11:38;;;;;;;8.15;6.20;;;;;;;15.00;100.00;101837.31;5029561;28;20053;-89
2023/09/05 04:14:03;;;;;;;7.65;6.10;;;;;;;14.99;100.00;101835.63;5028497;28;20025;-89
2023/09/05 04:16:29;;;;;;;7.35;6.22;;;;;;;14.98;100.00;101825.97;5028467;28;20029;-89
2023/09/05 04:18:54;;;;;;;6.40;5.80;;;;;;;14.97;100.00;101823.44;5027588;28;20454;-89
2023/09/05 04:21:20;;;;;;;6.72;6.03;;;;;;;14.95;100.00;101822.72;5029312;28;20028;-89
2023/09/05 04:23:45;;;;;;;6.63;5.97;;;;;;;14.95;100.00;101818.25;5034667;28;20355;-89
2023/09/05 04:26:10;;;;;;;7.85;6.20;;;;;;;14.92;100.00;101822.97;5039807;28;20027;-89
2023/09/05 04:28:36;;;;;;;7.00;5.85;;;;;;;14.92;100.00;101815.84;5049828;28;20032;-89
2023/09/05 04:31:05;;;;;;;9.45;6.00;;;;;;;14.89;100.00;101818.75;5047968;28;20056;-89
2023/09/05 04:33:37;;;;;;;6.75;6.03;;;;;;;14.84;100.00;101815.59;5049036;28;20039;-89
2023/09/05 04:36:12;;;;;;;9.55;6.25;;;;;;;14.88;100.00;101818.84;5050168;28;20377;-89
2023/09/05 04:38:44;;;;;;;7.40;5.80;;;;;;;14.83;100.00;101824.50;5034621;28;20047;-89
2023/09/05 04:41:10;;;;;;;;;;;;;;;14.94;100.00;101823.69;5029221;28;20041;-89
2023/09/05 04:43:35;;;;;;;7.00;6.30;;;;;;;14.84;100.00;101815.59;5029507;28;19947;-89
2023/09/05 04:46:03;;;;;;;7.10;5.70;;;;;;;14.82;100.00;101814.88;5045272;28;20462;-89
2023/09/05 04:48:29;;;;;;;6.55;5.85;;;;;;;14.83;100.00;101807.78;5034436;28;20397;-89
2023/09/05 04:50:55;;;;;;;7.95;5.70;;;;;;;14.84;100.00;101812.09;5032940;28;20029;-89
2023/09/05 04:53:20;;;;;;;6.28;5.75;;;;;;;14.86;100.00;101812.84;5045063;28;20736;-89
2023/09/05 04:55:47;;;;;;;8.30;5.90;;;;;;;14.88;100.00;101814.41;5036484;28;20079;-89
2023/09/05 04:58:13;;;;;;;9.20;6.15;;;;;;;14.87;100.00;101815.38;5028616;28;20045;-89
2023/09/05 05:00:40;;;;;;;7.72;5.65;;;;;;;14.84;100.00;101815.59;5028558;28;20064;-89
2023/09/05 05:03:06;;;;;;;10.63;6.45;;;;;;;14.84;100.00;101809.47;5038417;28;20028;-89
2023/09/05 05:05:31;;;;;;;7.72;5.32;;;;;;;14.86;100.00;101813.69;5041467;28;20021;-89
2023/09/05 05:07:56;;;;;;;8.68;5.38;;;;;;;14.88;100.00;101811.75;5045398;28;20356;-89
2023/09/05 05:10:22;;;;;;;8.90;5.28;;;;;;;14.88;100.00;101811.75;5048757;28;20017;-89
2023/09/05 05:12:47;;;;;;;9.15;5.28;;;;;;;14.88;100.00;101813.56;5035482;28;20376;-90
2023/09/05 05:15:13;;;;;;;6.30;5.28;;;;;;;14.85;100.00;101822.59;5031331;28;20101;-90
2023/09/05 05:17:39;;;;;;;7.03;5.22;;;;;;;14.84;100.00;101820.91;5047612;28;20143;-90
2023/09/05 05:20:05;;;;;;;8.73;5.15;;;;;;;14.89;100.00;101826.69;5047248;28;20033;-90
2023/09/05 05:22:31;;;;;;;7.70;5.63;;;;;;;14.82;100.00;101833.41;5048032;28;20025;-90
2023/09/05 05:24:57;;;;;;;5.72;4.65;;;;;;;14.83;100.00;101829.81;5048727;28;20035;-89
2023/09/05 05:27:23;;;;;;;10.05;4.65;;;;;;;14.83;100.00;101827.16;5047144;28;20075;-90
2023/09/05 05:29:48;;;;;;;8.05;4.95;;;;;;;14.81;100.00;101831.75;5039528;28;20489;-90
2023/09/05 05:32:13;;;;;;;7.82;5.20;;;;;;;14.88;100.00;101826.81;5048329;28;20032;-90
2023/09/05 05:34:39;;;;;;;5.93;5.22;;;;;;;14.87;100.00;101833.91;5047477;28;20023;-90
2023/09/05 05:37:04;;;;;;;5.57;4.80;;;;;;;14.93;100.00;101841.41;5041293;28;20431;-90
2023/09/05 05:39:29;;;;;;;7.95;4.68;;;;;;;15.04;100.00;101830.81;5047082;28;20023;-90
2023/09/05 05:41:55;;;;;;;6.25;4.90;;;;;;;15.32;100.00;101836.63;5048908;28;20086;-90
2023/09/05 05:44:20;;;;;;;7.15;4.55;;;;;;;15.38;100.00;101835.28;5047205;28;20067;-89
2023/09/05 05:46:46;;;;;;;6.38;4.80;;;;;;;15.42;100.00;101837.59;5036093;28;20056;-90
2023/09/05 05:49:11;;;;;;;6.57;4.53;;;;;;;15.47;99.87;101838.06;5027523;28;20039;-90
2023/09/05 05:51:37;;;;;;;8.18;4.40;;;;;;;15.49;100.00;101833.47;5045312;28;20020;-90
2023/09/05 05:54:03;;;;;;;9.13;4.60;;;;;;;15.57;99.48;101830.22;5045376;28;20026;-89
2023/09/05 05:56:28;;;;;;;4.93;4.40;;;;;;;15.60;99.84;101835.31;5029030;28;20038;-89
2023/09/05 05:58:54;;;;;;;5.63;4.20;;;;;;;15.71;98.43;101842.44;5031443;28;20055;-90
2023/09/05 06:01:19;;;;;;;6.50;4.47;;;;;;;15.80;97.17;101839.03;5033070;28;20060;-89
2023/09/05 06:03:45;;;;;;;7.90;4.20;;;;;;;15.86;96.63;101831.44;5031032;28;20029;-89
2023/09/05 06:06:10;;;;;;;8.70;4.05;;;;;;;15.95;95.98;101835.16;5036900;28;20029;-90
2023/09/05 06:08:36;;;;;;;5.88;3.92;;;;;;;16.03;95.18;101832.75;5032480;28;20051;-90
2023/09/05 06:11:02;;;;;;;5.68;3.75;;;;;;;16.11;94.77;101835.59;5032551;28;20116;-89
2023/09/05 06:13:27;;;;;;;6.28;4.00;;;;;;;16.19;94.02;101833.16;5035280;28;20393;-89
2023/09/05 06:15:53;;;;;;;5.63;4.05;;;;;;;16.27;93.31;101830.72;5039847;28;20409;-90
2023/09/05 06:18:19;;;;;;;4.13;3.42;;;;;;;16.35;92.22;101832.72;5029883;28;20029;-90
2023/09/05 06:20:44;;;;;;;6.55;3.90;;;;;;;16.43;91.87;101829.47;5028247;28;20022;-89
2023/09/05 06:23:09;;;;;;;5.00;3.60;;;;;;;16.47;92.68;101830.91;5031935;28;20025;-89
2023/09/05 06:25:35;;;;;;;5.18;3.70;;;;;;;16.54;91.67;101843.53;5030617;28;20025;-89
2023/09/05 06:28:01;;;;;;;5.78;4.38;;;;;;;16.56;91.55;101835.44;5033315;28;20529;-89
2023/09/05 06:30:26;;;;;;;4.82;3.55;;;;;;;16.71;89.32;101836.84;5050021;28;20031;-90
2023/09/05 06:32:51;;;;;;;4.75;3.58;;;;;;;16.74;90.75;101839.22;5048707;28;20039;-89
2023/09/05 06:35:17;;;;;;;7.47;4.03;;;;;;;16.82;88.58;101842.13;5030672;28;20030;-89
2023/09/05 06:37:42;;;;;;;4.28;3.72;;;;;;;16.86;89.31;101843.53;5030742;28;20028;-89
2023/09/05 06:40:18;;;;;;;12.68;4.22;;;;;;;16.94;88.76;101848.19;5031088;28;20104;-89
2023/09/05 06:42:44;;;;;;;7.15;3.50;;;;;;;17.03;88.23;101834.13;5029630;28;20032;-89
2023/09/05 06:45:10;;;;;;;5.28;3.22;;;;;;;17.14;87.09;101835.84;5043027;28;20396;-89
2023/09/05 06:47:37;;;;;;;4.45;3.30;;;;;;;17.24;86.63;101834.09;5051214;28;20084;-89
2023/09/05 06:50:06;;;;;;;4.93;3.28;;;;;;;17.32;87.33;101831.63;5050051;28;20504;-89
2023/09/05 06:52:32;;;;;;;5.18;3.58;;;;;;;17.43;86.19;101830.69;5043580;28;20025;-89
2023/09/05 06:54:57;;;;;;;5.50;3.40;;;;;;;17.55;86.14;101824.28;5035324;28;20040;-89
2023/09/05 06:57:22;;;;;;;4.05;3.17;;;;;;;17.71;85.12;101818.50;5030683;28;20032;-88
2023/09/05 06:59:51;;;;;;;6.10;3.20;;;;;;;17.82;85.00;101826.34;5032264;28;20017;-88
2023/09/05 07:02:17;;;;;;;4.63;3.20;;;;;;;17.98;84.23;101821.34;5032137;28;20026;-89
2023/09/05 07:04:42;;;;;;;6.93;3.30;;;;;;;18.13;83.36;101814.66;5038394;28;20369;-88
2023/09/05 07:07:08;;;;;;;6.20;3.35;;;;;;;18.27;82.55;101815.22;5048168;28;20022;-88
2023/09/05 07:09:34;;;;;;;11.20;4.00;;;;;;;18.45;81.22;101817.03;5035239;28;20478;-88
2023/09/05 07:12:00;;;;;;;6.90;3.65;;;;;;;18.51;81.74;101812.13;5031518;28;20032;-88
2023/09/05 07:14:26;;;;;;;7.30;3.20;;;;;;;18.72;81.38;101816.34;5031027;28;20060;-88
2023/09/05 07:16:51;;;;;;;5.25;3.10;;;;;;;18.91;80.20;101809.28;5032086;28;20064;-88
2023/09/05 07:19:17;;;;;;;6.57;3.20;;;;;;;19.03;78.51;101814.31;5031457;28;20026;-88
2023/09/05 07:21:43;;;;;;;5.63;2.90;;;;;;;19.24;78.82;101806.09;5029364;28;20025;-89
2023/09/05 07:24:13;;;;;;;4.93;3.08;;;;;;;19.42;76.68;101798.16;5042779;28;20021;-88
2023/09/05 07:26:40;;;;;;;6.40;3.10;;;;;;;19.60;75.13;101803.56;5041890;28;20056;-89
2023/09/05 07:29:10;;;;;;;5.82;2.90;;;;;;;19.81;77.14;101806.84;5039479;28;20082;-88
2023/09/05 07:31:37;;;;;;;6.88;3.38;;;;;;;20.14;73.71;101812.53;5049743;28;20040;-88
2023/09/05 07:34:03;;;;;;;3.53;2.75;;;;;;;20.34;72.93;101801.50;5033357;28;20029;-89
2023/09/05 07:36:28;;;;;;;5.05;2.88;;;;;;;20.51;71.94;101799.88;5028794;28;20095;-89
2023/09/05 07:38:54;;;;;;;5.82;2.70;;;;;;;20.71;70.16;101797.00;5030757;28;20116;-88
2023/09/05 07:41:19;;;;;;;4.50;2.67;;;;;;;20.88;70.84;101798.78;5030439;28;20492;-88
2023/09/05 07:43:45;;;;;;;3.72;2.50;;;;;;;20.96;67.98;101790.81;5028501;28;20482;-81
2023/09/05 07:46:11;;;;;;;5.43;3.00;;;;;;;21.15;67.84;101792.41;5029764;28;20056;-81
2023/09/05 07:48:40;;;;;;;6.85;2.67;;;;;;;21.34;67.41;101796.75;5030770;28;20017;-81
2023/09/05 07:51:07;;;;;;;4.00;2.90;;;;;;;21.51;67.90;101785.91;5028712;28;20083;-89
2023/09/05 07:53:34;;;;;;;3.75;2.70;;;;;;;21.65;65.91;101792.50;5031833;28;20532;-89
2023/09/05 07:56:00;;;;;;;4.50;2.40;;;;;;;21.85;65.01;101804.63;5030737;28;20026;-89
2023/09/05 07:58:27;;;;;;;5.00;2.80;;;;;;;21.96;65.57;101803.47;5030184;28;20930;-89
2023/09/05 08:00:53;;;;;;;5.22;2.67;;;;;;;22.27;63.82;101803.72;5028428;28;20661;-90
2023/09/05 08:03:19;;;;;;;5.18;2.53;;;;;;;22.42;62.34;101807.44;5035724;28;20029;-87
2023/09/05 08:05:45;;;;;;;3.47;2.45;;;;;;;22.59;62.44;101804.72;5049943;28;20095;-87
2023/09/05 08:08:10;;;;;;;4.68;2.53;;;;;;;22.79;62.61;101806.88;5056140;28;20048;-87
2023/09/05 08:10:37;;;;;;;3.72;2.67;;;;;;;23.00;62.38;101803.69;5053061;28;20130;-87
2023/09/05 08:13:03;;;;;;;3.58;2.67;;;;;;;23.23;60.28;101805.66;5049853;28;20477;-88
2023/09/05 08:15:28;;;;;;;7.32;2.63;;;;;;;23.46;59.41;101803.88;5050888;28;20481;-87
2023/09/05 08:17:54;;;;;;;5.95;2.60;;;;;;;23.57;58.64;101797.31;5037673;28;20029;-88
2023/09/05 08:20:20;;;;;;;6.93;2.70;;;;;;;23.64;58.73;101792.94;5030055;28;20018;-87
2023/09/05 08:22:46;;;;;;;8.57;2.88;;;;;;;23.85;58.52;101801.19;5030584;28;20021;-87
2023/09/05 08:25:15;;;;;;;9.30;2.72;;;;;;;23.96;56.54;101797.25;5029675;28;20416;-87
2023/09/05 08:27:41;;;;;;;4.38;2.85;;;;;;;24.11;55.84;101800.88;5029975;28;20254;-88
2023/09/05 08:30:11;;;;;;;3.50;2.25;;;;;;;24.26;56.86;101804.44;5047791;28;20507;-88
2023/09/05 08:32:38;;;;;;;6.43;2.80;;;;;;;24.30;54.31;101800.41;5048081;28;20029;-87
2023/09/05 08:35:05;;;;;;;6.22;2.60;;;;;;;24.50;54.14;101799.94;5036683;28;20104;-87
2023/09/05 08:37:32;;;;;;;5.88;2.70;;;;;;;24.66;53.68;101789.00;5029603;28;20033;-87
2023/09/05 08:39:57;;;;;;;4.45;2.90;;;;;;;24.67;53.49;101788.81;5035600;28;20025;-88
2023/09/05 08:42:23;;;;;;;5.63;2.72;;;;;;;24.78;52.69;101786.69;5028037;28;20083;-88
2023/09/05 08:44:50;;;;;;;5.00;2.45;;;;;;;24.92;51.95;101780.50;5027918;28;20029;-88
2023/09/05 08:47:16;;;;;;;6.13;2.40;;;;;;;25.08;52.29;101792.97;5028621;28;20448;-87
2023/09/05 08:49:45;;;;;;;4.13;2.30;;;;;;;25.19;52.47;101796.03;5038494;28;20032;-87
2023/09/05 08:52:14;;;;;;;7.03;2.83;;;;;;;25.39;51.92;101782.84;5043261;28;20025;-87
2023/09/05 08:54:39;;;;;;;5.60;2.70;;;;;;;25.43;50.93;101781.44;5036377;28;20039;-88
2023/09/05 08:57:05;;;;;;;7.05;2.50;;;;;;;25.66;50.01;101786.72;5047875;28;20119;-88
2023/09/05 08:59:32;;;;;;;6.55;2.60;;;;;;;25.85;50.02;101786.09;5048619;28;20025;-88
2023/09/05 09:02:01;;;;;;;4.20;2.60;;;;;;;25.74;49.14;101785.78;5048962;28;20040;-88
2023/09/05 09:04:27;;;;;;;4.50;2.50;;;;;;;26.02;49.33;101786.72;5048631;28;20027;-87
2023/09/05 09:06:57;;;;;;;4.30;2.08;;;;;;;26.03;49.68;101792.94;5046882;28;20033;-87
2023/09/05 09:09:40;;;;;;;5.25;2.40;;;;;;;26.26;50.66;101798.13;5032928;28;20049;-88
2023/09/05 09:12:06;;;;;;;;;;;;;;;26.60;53.16;101800.97;5029402;28;20029;-88
2023/09/05 09:14:31;;;;;;;3.90;2.70;;;;;;;26.49;48.55;101790.72;5030266;28;19917;-88
2023/09/05 09:17:01;;;;;;;6.57;2.40;;;;;;;26.55;48.34;101792.63;5041386;28;20021;-87
2023/09/05 09:19:30;;;;;;;5.60;2.65;;;;;;;26.58;48.15;101796.78;5028239;28;20056;-88
2023/09/05 09:22:00;;;;;;;4.03;2.28;;;;;;;26.75;47.92;101799.00;5027681;28;20524;-87
2023/09/05 09:24:34;;;;;;;5.47;2.83;;;;;;;26.85;48.67;101802.19;5028411;28;20547;-88
2023/09/05 09:27:04;;;;;;;7.18;2.60;;;;;;;26.84;48.69;101795.13;5029829;28;20076;-87
2023/09/05 09:29:31;;;;;;;4.80;2.58;;;;;;;27.09;46.50;101805.47;5042891;28;20378;-88
2023/09/05 09:32:06;;;;;;;5.13;2.25;;;;;;;27.13;47.56;101812.16;5047747;28;20098;-87
2023/09/05 09:34:35;;;;;;;4.38;2.40;;;;;;;27.19;47.16;101805.94;5028474;28;20029;-89
2023/09/05 09:37:01;;;;;;;4.65;2.60;;;;;;;27.34;45.99;101803.13;5038084;28;20082;-88
2023/09/05 09:39:29;;;;;;;3.25;2.25;;;;;;;27.35;46.01;101804.81;5045417;28;20037;-86
2023/09/05 09:41:56;;;;;;;4.05;2.10;;;;;;;27.40;45.93;101805.03;5027999;28;20025;-87
2023/09/05 09:44:26;;;;;;;5.13;2.45;;;;;;;27.40;47.02;101805.03;5025426;28;20021;-87
2023/09/05 09:46:53;;;;;;;4.35;2.40;;;;;;;27.48;46.43;101808.41;5027887;28;20057;-87
2023/09/05 09:49:19;;;;;;;8.52;2.50;;;;;;;27.46;46.91;101806.94;5033008;28;20021;-88
2023/09/05 09:51:51;;;;;;;5.00;2.70;;;;;;;27.64;46.21;101804.56;5041489;28;20436;-86
2023/09/05 09:54:18;;;;;;;4.60;2.40;;;;;;;27.64;46.99;101803.72;5033771;28;20104;-87
2023/09/05 09:56:47;;;;;;;5.45;2.30;;;;;;;27.81;46.48;101798.78;5031588;28;20021;-87
2023/09/05 09:59:18;;;;;;;4.65;2.47;;;;;;;27.92;46.22;101799.00;5026781;28;20435;-87
2023/09/05 10:01:44;;;;;;;6.65;2.90;;;;;;;28.07;46.04;101799.69;5027834;28;20017;-87
2023/09/05 10:04:10;;;;;;;4.60;2.60;;;;;;;28.07;45.74;101805.09;5026369;28;20030;-88
2023/09/05 10:06:36;;;;;;;3.67;2.55;;;;;;;28.13;45.58;101797.19;5028231;28;20029;-87
2023/09/05 10:09:02;;;;;;;6.03;2.63;;;;;;;28.32;46.03;101799.09;5048131;28;20049;-87
2023/09/05 10:11:28;;;;;;;4.93;2.38;;;;;;;28.18;44.96;101797.38;5047202;28;20351;-87
2023/09/05 10:13:54;;;;;;;3.00;2.25;;;;;;;28.31;45.80;101789.31;5036981;28;20025;-87
2023/09/05 10:16:21;;;;;;;6.35;2.30;;;;;;;28.38;45.30;101779.31;5026092;28;20053;-87
2023/09/05 10:18:47;;;;;;;4.50;2.35;;;;;;;28.36;45.87;101787.63;5032519;28;20037;-87
2023/09/05 10:21:12;;;;;;;4.57;2.28;;;;;;;28.37;45.83;101785.75;5027623;28;20022;-86
2023/09/05 10:23:38;;;;;;;4.82;2.08;;;;;;;28.44;44.99;101783.91;5028718;28;20109;-87
2023/09/05 10:26:07;;;;;;;4.40;2.42;;;;;;;28.48;45.51;101785.16;5028201;28;20022;-87
2023/09/05 10:28:32;;;;;;;3.40;2.20;;;;;;;28.65;45.01;101783.69;5037294;28;20397;-87
2023/09/05 10:31:24;;;;;;;3.03;2.10;;;;;;;28.69;47.59;101784.91;5028311;28;20033;-86
2023/09/05 10:33:50;;;;;;;4.80;2.30;;;;;;;28.55;44.45;101779.72;5023971;28;20092;-87
2023/09/05 10:36:54;;;;;;;3.50;2.17;;;;;;;28.80;47.02;101777.19;5034980;28;20029;-87
2023/09/05 10:39:32;;;;;;;3.38;2.30;;;;;;;28.68;44.14;101785.97;4971147;28;20089;-87
2023/09/05 10:41:57;;;;;;;4.32;2.10;;;;;;;28.66;44.46;101779.94;4954876;28;20026;-87
2023/09/05 10:44:24;;;;;;;3.45;2.15;;;;;;;28.85;43.89;101774.75;5010402;28;20044;-88
2023/09/05 10:46:53;;;;;;;4.13;1.80;;;;;;;29.02;43.80;101782.19;5043438;28;20085;-87
2023/09/05 10:49:18;;;;;;;2.80;2.15;;;;;;;29.06;42.19;101782.59;5045225;28;20489;-87
2023/09/05 10:52:15;;;;;;;4.60;2.25;;;;;;;29.07;43.65;101778.84;5030006;28;20025;-88
2023/09/05 10:54:40;;;;;;;2.72;2.00;;;;;;;29.18;42.48;101764.63;5040518;28;20025;-86
2023/09/05 10:57:36;;;;;;;3.63;1.77;;;;;;;29.32;44.15;101762.69;5051255;28;20036;-86
2023/09/05 11:00:18;;;;;;;4.63;2.10;;;;;;;29.41;43.28;101761.41;5045437;28;20266;-87
2023/09/05 11:02:45;;;;;;;4.03;2.10;;;;;;;29.46;41.51;101758.91;5049780;28;20031;-87
2023/09/05 11:05:11;;;;;;;3.92;2.20;;;;;;;29.49;40.90;101760.34;5050979;28;20112;-87
2023/09/05 11:07:43;;;;;;;4.70;2.17;;;;;;;29.31;40.65;101753.75;5026838;28;20048;-86
2023/09/05 11:10:28;;;;;;;7.50;2.25;;;;;;;29.61;42.14;101748.59;5030772;28;20031;-88
2023/09/05 11:12:54;;;;;;;5.43;2.10;;;;;;;29.67;39.86;101749.63;5031656;28;20381;-87
2023/09/05 11:15:31;;;;;;;7.15;2.10;;;;;;;29.86;42.36;101751.38;5040170;28;20024;-87
2023/09/05 11:17:59;;;;;;;3.20;1.60;;;;;;;30.02;40.06;101747.34;5029431;28;20095;-86
2023/09/05 11:20:45;;;;;;;7.55;1.98;;;;;;;30.10;40.46;101749.78;5030280;28;20025;-88
2023/09/05 11:23:41;;;;;;;2.85;2.05;;;;;;;29.93;40.43;101749.44;5029460;28;20037;-87